createdAt,value
2023-03-12T00:01:23.660Z,1.43
2023-03-12T00:06:26.138Z,1.50
2023-03-12T00:11:29.152Z,1.56
2023-03-12T00:16:31.658Z,1.51
2023-03-12T00:21:34.227Z,1.55
2023-03-12T00:26:36.722Z,1.77
2023-03-12T00:31:39.412Z,1.91
2023-03-12T00:36:42.009Z,1.93
2023-03-12T00:41:44.457Z,2.00
2023-03-12T00:46:47.001Z,2.01
2023-03-12T00:51:49.881Z,1.96
2023-03-12T00:56:52.480Z,2.13
2023-03-12T01:01:54.973Z,2.01
2023-03-12T01:06:57.905Z,2.13
2023-03-12T01:12:00.466Z,2.19
2023-03-12T01:17:02.997Z,2.23
2023-03-12T01:22:05.637Z,2.33
2023-03-12T01:27:08.157Z,2.35
2023-03-12T01:32:10.703Z,2.41
2023-03-12T01:37:13.586Z,2.25
2023-03-12T01:42:16.322Z,2.45
2023-03-12T01:47:18.950Z,2.48
2023-03-12T01:52:25.533Z,2.56
2023-03-12T01:57:48.711Z,2.56
2023-03-12T02:02:53.923Z,2.61
2023-03-12T02:07:59.917Z,2.67
2023-03-12T02:13:02.760Z,2.68
2023-03-12T02:18:07.499Z,2.76
2023-03-12T02:23:18.945Z,2.84
2023-03-12T02:28:26.973Z,2.83
2023-03-12T02:33:30.133Z,3.04
2023-03-12T02:38:34.263Z,2.97
2023-03-12T02:43:37.412Z,3.02
2023-03-12T02:48:40.500Z,3.03
2023-03-12T02:53:43.136Z,3.09
2023-03-12T02:58:45.886Z,3.20
2023-03-12T03:03:48.780Z,3.18
2023-03-12T03:08:51.833Z,3.26
2023-03-12T03:13:55.940Z,3.23
2023-03-12T03:18:59.289Z,3.25
2023-03-12T03:24:02.131Z,3.32
2023-03-12T03:29:05.185Z,3.40
2023-03-12T03:34:08.148Z,3.37
2023-03-12T03:39:10.816Z,3.36
2023-03-12T03:44:14.354Z,3.34
2023-03-12T03:49:17.376Z,3.44
2023-03-12T03:54:20.331Z,3.50
2023-03-12T03:59:22.937Z,3.56
2023-03-12T04:04:25.891Z,3.54
2023-03-12T04:09:30.658Z,3.56
2023-03-12T04:14:33.635Z,3.65
2023-03-12T04:19:36.482Z,3.64
2023-03-12T04:24:41.185Z,3.64
2023-03-12T04:29:45.410Z,3.78
2023-03-12T04:34:48.175Z,3.89
2023-03-12T04:39:52.798Z,3.81
2023-03-12T04:44:55.501Z,3.89
2023-03-12T04:49:58.265Z,3.91
2023-03-12T04:55:00.936Z,4.02
2023-03-12T05:00:10.224Z,4.03
2023-03-12T05:05:13.004Z,4.17
2023-03-12T05:10:16.644Z,4.23
2023-03-12T05:15:20.030Z,4.29
2023-03-12T05:20:22.711Z,4.47
2023-03-12T05:25:25.330Z,4.47
2023-03-12T05:30:28.024Z,4.49
2023-03-12T05:35:30.926Z,4.54
2023-03-12T05:40:33.647Z,4.69
2023-03-12T05:45:36.357Z,4.82
2023-03-12T05:50:39.078Z,4.80
2023-03-12T05:55:42.691Z,4.63
2023-03-12T06:00:45.708Z,4.93
2023-03-12T06:05:50.193Z,4.90
2023-03-12T06:10:54.967Z,4.97
2023-03-12T06:16:04.663Z,4.94
2023-03-12T06:21:22.341Z,5.00
2023-03-12T06:26:26.019Z,4.99
2023-03-12T06:31:28.673Z,5.01
2023-03-12T06:36:31.213Z,5.01
2023-03-12T06:41:34.087Z,4.98
2023-03-12T06:46:37.193Z,5.04
2023-03-12T06:51:39.729Z,5.09
2023-03-12T06:56:42.802Z,5.17
2023-03-12T07:01:45.516Z,5.16
2023-03-12T07:06:50.651Z,5.10
2023-03-12T07:11:53.331Z,5.15
2023-03-12T07:16:56.810Z,5.21
2023-03-12T07:21:59.419Z,5.30
2023-03-12T07:27:02.156Z,5.44
2023-03-12T07:32:05.017Z,5.65
2023-03-12T07:37:07.634Z,5.74
2023-03-12T07:42:10.305Z,5.87
2023-03-12T07:47:23.635Z,5.92
2023-03-12T07:52:27.333Z,5.86
2023-03-12T07:57:30.031Z,6.21
2023-03-12T08:02:32.777Z,6.39
2023-03-12T08:07:35.856Z,6.43
